Time;durP1;ratioP1;P1;durP2;ratioP2;P2;SDS_P1;SDS_P2;PMS_P1;PMS_P2;Temp;Humidity;BMP_temperature;BMP_pressure;BME280_temperature;BME280_humidity;BME280_pressure;Samples;Min_cycle;Max_cycle;Signal;HPM_P1;HPM_P2
2024/04/18 00:00:36;;;;;;;5.00;4.50;;;;;;;8.77;100.00;98881.33;87402;273;136094;-75
2024/04/18 00:02:37;;;;;;;7.60;4.90;;;;;;;8.77;100.00;98881.19;87427;273;22575;-75
2024/04/18 00:04:38;;;;;;;6.90;4.50;;;;;;;8.75;100.00;98876.90;87366;271;137081;-74
2024/04/18 00:06:38;;;;;;;4.80;4.40;;;;;;;8.72;100.00;98871.19;87473;277;22606;-76
2024/04/18 00:08:41;;;;;;;5.20;4.60;;;;;;;8.69;100.00;98862.72;87344;277;136534;-76
2024/04/18 00:11:00;;;;;;;4.30;3.90;;;;;;;8.62;100.00;98857.98;87088;278;25154;-78
2024/04/18 00:13:12;;;;;;;6.30;4.40;;;;;;;8.54;100.00;98850.48;87315;281;136448;-77
2024/04/18 00:15:33;;;;;;;5.00;4.10;;;;;;;8.45;100.00;98842.88;87442;272;25320;-75
2024/04/18 00:17:35;;;;;;;3.90;3.70;;;;;;;8.34;100.00;98843.30;87402;274;136812;-76
2024/04/18 00:19:56;;;;;;;4.90;3.50;;;;;;;8.24;100.00;98843.34;87529;272;23886;-74
2024/04/18 00:22:06;;;;;;;5.50;5.00;;;;;;;8.17;100.00;98844.05;87525;273;23959;-76
2024/04/18 00:24:09;;;;;;;6.50;4.70;;;;;;;8.15;100.00;98846.30;87282;269;137691;-76
2024/04/18 00:26:25;;;;;;;8.10;5.20;;;;;;;8.14;100.00;98848.23;87291;275;25265;-77
2024/04/18 00:28:35;;;;;;;7.50;5.20;;;;;;;8.13;100.00;98853.82;87398;268;136962;-75
2024/04/18 00:30:48;;;;;;;9.50;5.30;;;;;;;8.14;100.00;98854.08;87448;272;24615;-78
2024/04/18 00:32:51;;;;;;;4.30;3.90;;;;;;;8.16;100.00;98855.45;87361;272;136580;-77
2024/04/18 00:35:10;;;;;;;7.80;4.80;;;;;;;8.19;100.00;98859.31;87649;278;22733;-75
2024/04/18 00:37:11;;;;;;;4.70;4.30;;;;;;;8.20;100.00;98861.73;87437;266;136672;-75
2024/04/18 00:39:31;;;;;;;4.50;4.10;;;;;;;8.22;100.00;98860.95;87464;272;24001;-75
2024/04/18 00:41:34;;;;;;;5.00;4.40;;;;;;;8.25;100.00;98860.65;87426;268;136419;-74
2024/04/18 00:43:35;;;;;;;4.10;3.70;;;;;;;8.30;100.00;98859.98;87348;278;22556;-75
2024/04/18 00:45:36;;;;;;;5.90;3.80;;;;;;;8.35;100.00;98862.34;87428;267;136422;-76
2024/04/18 00:47:53;;;;;;;4.30;3.80;;;;;;;8.39;100.00;98857.17;87494;279;23739;-76
2024/04/18 00:49:54;;;;;;;5.60;3.80;;;;;;;8.42;100.00;98850.73;87378;280;136288;-74
2024/04/18 00:52:18;;;;;;;4.40;3.80;;;;;;;8.45;100.00;98843.33;87347;263;137709;-75
2024/04/18 00:54:27;;;;;;;5.00;3.90;;;;;;;8.45;100.00;98839.77;87496;279;22604;-74
2024/04/18 00:56:33;;;;;;;3.80;3.50;;;;;;;8.46;100.00;98843.38;87358;273;136585;-76
2024/04/18 00:58:52;;;;;;;4.90;4.20;;;;;;;8.46;100.00;98842.59;87586;268;22574;-77
2024/04/18 01:00:53;;;;;;;7.20;4.10;;;;;;;8.42;100.00;98844.11;87422;276;136589;-77
2024/04/18 01:03:12;;;;;;;3.80;3.60;;;;;;;8.34;100.00;98845.13;87282;271;25098;-76
2024/04/18 01:05:14;;;;;;;5.20;3.20;;;;;;;8.29;100.00;98848.13;87430;271;138607;-75
2024/04/18 01:07:17;;;;;;;4.00;3.70;;;;;;;8.27;100.00;98850.02;87522;271;25361;-77
2024/04/18 01:09:21;;;;;;;6.50;3.20;;;;;;;8.27;100.00;98850.19;87334;272;138076;-76
2024/04/18 01:11:40;;;;;;;4.80;4.40;;;;;;;8.30;100.00;98849.73;87466;271;22575;-76
2024/04/18 01:13:40;;;;;;;4.00;3.60;;;;;;;8.33;100.00;98852.17;87178;269;136595;-75
2024/04/18 01:15:56;;;;;;;4.50;4.10;;;;;;;8.35;100.00;98852.54;87521;271;22576;-76
2024/04/18 01:18:00;;;;;;;4.20;3.80;;;;;;;8.36;100.00;98855.55;87456;267;136331;-78
2024/04/18 01:20:01;;;;;;;5.30;4.80;;;;;;;8.37;100.00;98858.23;87506;273;25114;-75
2024/04/18 01:22:03;;;;;;;5.10;4.60;;;;;;;8.39;100.00;98857.21;87357;273;136448;-79
2024/04/18 01:24:04;;;;;;;4.80;4.40;;;;;;;8.40;100.00;98861.45;87280;274;137847;-77
2024/04/18 01:26:05;;;;;;;4.60;4.20;;;;;;;8.40;100.00;98858.23;87411;269;22554;-76
2024/04/18 01:28:05;;;;;;;4.90;4.30;;;;;;;8.37;100.00;98853.63;87343;277;137657;-77
2024/04/18 01:30:06;;;;;;;5.20;4.70;;;;;;;8.34;100.00;98854.48;87468;269;22644;-77
2024/04/18 01:32:13;;;;;;;4.90;4.50;;;;;;;8.29;100.00;98853.38;87154;273;137000;-76
2024/04/18 01:34:14;;;;;;;4.40;3.70;;;;;;;8.25;100.00;98860.48;87653;274;23975;-75
2024/04/18 01:36:15;;;;;;;4.80;4.40;;;;;;;8.21;100.00;98859.61;87465;271;136666;-76
2024/04/18 01:38:24;;;;;;;5.00;4.60;;;;;;;8.19;100.00;98863.72;87607;275;22593;-77
2024/04/18 01:40:25;;;;;;;4.10;3.70;;;;;;;8.19;100.00;98863.04;87376;270;136427;-77
2024/04/18 01:42:44;;;;;;;5.20;4.40;;;;;;;8.20;100.00;98861.53;87485;279;25229;-75
2024/04/18 01:44:57;;;;;;;5.80;5.30;;;;;;;8.19;100.00;98861.52;87387;269;136252;-76
2024/04/18 01:47:10;;;;;;;5.10;4.70;;;;;;;8.18;100.00;98863.90;87531;268;22564;-75
2024/04/18 01:49:31;;;;;;;5.80;4.80;;;;;;;8.18;100.00;98864.06;87288;269;136516;-74
2024/04/18 01:51:32;;;;;;;6.10;4.90;;;;;;;8.20;100.00;98863.45;87290;277;22561;-75
2024/04/18 01:53:33;;;;;;;6.20;5.70;;;;;;;8.20;100.00;98859.93;87328;274;137463;-76
2024/04/18 01:55:33;;;;;;;5.60;4.80;;;;;;;8.20;100.00;98861.52;87492;280;23971;-76
2024/04/18 01:57:55;;;;;;;5.80;4.70;;;;;;;8.19;100.00;98855.77;87413;279;137614;-76
2024/04/18 02:00:10;;;;;;;8.00;5.10;;;;;;;8.22;100.00;98851.92;87423;280;137988;-77
2024/04/18 02:02:12;;;;;;;6.30;5.60;;;;;;;8.25;100.00;98845.13;87749;270;22592;-76
2024/04/18 02:04:32;;;;;;;6.70;5.30;;;;;;;8.29;100.00;98842.91;87528;276;136591;-75
2024/04/18 02:06:33;;;;;;;5.70;5.00;;;;;;;8.28;100.00;98840.05;87499;280;22667;-77
2024/04/18 02:08:56;;;;;;;6.00;5.40;;;;;;;8.23;100.00;98833.99;87375;280;136568;-76
2024/04/18 02:11:15;;;;;;;10.10;6.40;;;;;;;8.19;100.00;98835.11;87531;269;25160;-76
2024/04/18 02:13:35;;;;;;;6.10;5.60;;;;;;;8.15;100.00;98831.73;87441;280;136608;-75
2024/04/18 02:15:36;;;;;;;6.50;5.90;;;;;;;8.12;100.00;98830.59;87406;273;24168;-76
2024/04/18 02:17:57;;;;;;;6.20;5.60;;;;;;;8.08;100.00;98832.66;87389;272;136401;-75
2024/04/18 02:20:15;;;;;;;6.30;5.80;;;;;;;8.07;100.00;98829.88;87289;280;137023;-76
2024/04/18 02:22:15;;;;;;;7.80;7.00;;;;;;;8.07;100.00;98827.92;87416;280;25095;-75
2024/04/18 02:24:17;;;;;;;7.60;6.90;;;;;;;8.06;100.00;98827.89;87299;277;136936;-74
2024/04/18 02:26:18;;;;;;;7.20;6.60;;;;;;;8.04;100.00;98825.89;87256;279;22596;-75
2024/04/18 02:28:18;;;;;;;7.60;6.30;;;;;;;8.00;100.00;98822.67;87374;269;137715;-76
2024/04/18 02:30:19;;;;;;;7.40;6.70;;;;;;;7.97;100.00;98823.91;87418;272;22633;-74
2024/04/18 02:32:20;;;;;;;9.00;8.10;;;;;;;7.97;100.00;98824.31;87261;272;136720;-75
2024/04/18 02:34:20;;;;;;;7.30;6.60;;;;;;;7.96;100.00;98824.89;87437;271;22582;-77
2024/04/18 02:36:25;;;;;;;7.60;6.90;;;;;;;7.96;100.00;98826.23;87147;272;136838;-77
2024/04/18 02:38:46;;;;;;;6.90;6.10;;;;;;;7.96;100.00;98821.90;87188;268;22587;-75
2024/04/18 02:40:47;;;;;;;6.80;6.10;;;;;;;7.96;100.00;98817.01;87207;271;136536;-75
2024/04/18 02:42:47;;;;;;;6.70;6.20;;;;;;;7.93;100.00;98818.45;87561;275;22555;-75
2024/04/18 02:45:07;;;;;;;10.70;7.80;;;;;;;7.92;100.00;98821.42;87371;271;136552;-74
2024/04/18 02:47:26;;;;;;;7.70;6.90;;;;;;;7.95;100.00;98828.11;87443;279;24001;-77
2024/04/18 02:49:39;;;;;;;7.10;6.50;;;;;;;7.98;100.00;98826.80;87297;279;136840;-74
2024/04/18 02:51:40;;;;;;;7.60;7.00;;;;;;;7.97;100.00;98823.70;87322;280;24968;-75
2024/04/18 02:53:47;;;;;;;6.70;6.10;;;;;;;7.96;100.00;98816.80;87250;268;136698;-76
2024/04/18 02:55:47;;;;;;;7.20;6.60;;;;;;;7.94;100.00;98814.92;87390;274;24022;-76
2024/04/18 02:58:04;;;;;;;6.60;6.00;;;;;;;7.93;100.00;98816.16;87545;279;22558;-75
2024/04/18 03:00:06;;;;;;;5.40;5.10;;;;;;;7.92;100.00;98816.77;87432;280;136882;-75
2024/04/18 03:02:06;;;;;;;9.60;6.20;;;;;;;7.94;100.00;98816.60;87499;271;22515;-76
2024/04/18 03:04:07;;;;;;;5.40;5.00;;;;;;;7.94;100.00;98810.89;87327;272;157099;-75
2024/04/18 03:08:08;;;;;;;5.40;4.90;;;;;;;7.89;100.00;98809.60;85320;299;602674;-76
2024/04/18 03:10:18;;;;;;;6.40;4.90;;;;;;;7.90;100.00;98812.58;86384;292;22679;-76
2024/04/18 03:12:34;;;;;;;;;;;;;;;7.90;100.00;98811.80;86139;289;135875;-74
2024/04/18 03:14:53;;;;;;;6.20;4.70;;;;;;;7.92;100.00;98808.04;86258;290;25276;-76
2024/04/18 03:17:14;;;;;;;7.20;5.00;;;;;;;7.91;100.00;98806.70;86119;288;136143;-74
2024/04/18 03:19:33;;;;;;;5.30;4.50;;;;;;;7.92;100.00;98807.95;86192;288;25241;-74
2024/04/18 03:21:33;;;;;;;5.00;4.60;;;;;;;7.95;100.00;98816.12;85769;291;852234;-75
2024/04/18 03:23:51;;;;;;;5.30;4.80;;;;;;;7.95;100.00;98814.69;86578;285;22581;-76
2024/04/18 03:26:12;;;;;;;4.90;4.50;;;;;;;7.95;100.00;98809.06;86564;286;24264;-75
2024/04/18 03:28:15;;;;;;;4.70;4.30;;;;;;;7.96;100.00;98809.09;86445;287;136280;-75
2024/04/18 03:30:16;;;;;;;5.60;4.30;;;;;;;7.97;100.00;98805.13;86740;277;23661;-75
2024/04/18 03:32:17;;;;;;;4.30;4.00;;;;;;;7.96;100.00;98805.86;86540;284;137794;-75
2024/04/18 03:34:18;;;;;;;4.90;4.50;;;;;;;7.92;100.00;98808.52;86428;284;24012;-75
2024/04/18 03:36:27;;;;;;;7.90;4.50;;;;;;;7.90;100.00;98812.55;86408;290;136151;-75
2024/04/18 03:38:28;;;;;;;6.80;4.50;;;;;;;7.90;100.00;98815.93;87328;275;22537;-76
2024/04/18 03:40:29;;;;;;;4.10;3.70;;;;;;;7.90;100.00;98813.67;87085;276;137587;-71
2024/04/18 03:42:36;;;;;;;4.60;4.20;;;;;;;7.92;100.00;98817.84;87159;279;22582;-72
2024/04/18 03:44:37;;;;;;;5.80;5.20;;;;;;;7.93;100.00;98816.34;87025;282;136399;-70
2024/04/18 03:46:38;;;;;;;4.80;4.40;;;;;;;7.91;100.00;98809.92;86972;279;22574;-70
2024/04/18 03:48:38;;;;;;;4.90;4.50;;;;;;;7.86;100.00;98807.16;86823;271;136772;-70
2024/04/18 03:50:39;;;;;;;5.30;4.80;;;;;;;7.82;100.00;98807.01;86882;271;22592;-72
2024/04/18 03:52:52;;;;;;;5.40;4.10;;;;;;;7.82;100.00;98806.71;87030;271;137771;-72
2024/04/18 03:55:11;;;;;;;7.00;4.40;;;;;;;7.84;100.00;98807.05;87161;271;22642;-73
2024/04/18 03:57:14;;;;;;;4.00;3.70;;;;;;;7.85;100.00;98807.41;87071;271;136075;-73
2024/04/18 03:59:30;;;;;;;;;;;;;;;7.85;100.00;98802.75;87276;283;23833;-71
2024/04/18 04:01:31;;;;;;;5.10;4.70;;;;;;;7.86;100.00;98801.06;87072;274;122905;-70
2024/04/18 04:03:31;;;;;;;6.10;4.50;;;;;;;7.86;100.00;98799.28;87192;275;25217;-71
2024/04/18 04:05:32;;;;;;;5.60;4.90;;;;;;;7.86;100.00;98793.41;87007;267;137355;-70
2024/04/18 04:07:33;;;;;;;8.60;4.40;;;;;;;7.87;100.00;98797.52;87107;275;22578;-71
2024/04/18 04:09:35;;;;;;;4.50;4.20;;;;;;;7.86;100.00;98797.28;87072;271;137645;-72
2024/04/18 04:11:35;;;;;;;6.10;4.90;;;;;;;7.87;100.00;98802.91;87217;276;22582;-70
2024/04/18 04:13:37;;;;;;;5.00;4.60;;;;;;;7.86;100.00;98801.81;87255;281;137156;-66
2024/04/18 04:15:50;;;;;;;4.30;3.90;;;;;;;7.85;100.00;98801.73;87136;277;23772;-70
2024/04/18 04:18:09;;;;;;;4.10;3.80;;;;;;;7.85;100.00;98799.85;87094;281;24153;-68
2024/04/18 04:20:16;;;;;;;4.30;3.90;;;;;;;7.85;100.00;98795.70;86981;278;136168;-71
2024/04/18 04:22:16;;;;;;;3.50;3.30;;;;;;;7.84;100.00;98796.69;87075;278;25143;-68
2024/04/18 04:24:17;;;;;;;4.90;4.30;;;;;;;7.84;100.00;98795.40;86724;273;136234;-66
2024/04/18 04:26:24;;;;;;;4.70;4.20;;;;;;;7.84;100.00;98791.37;87205;270;22684;-70
2024/04/18 04:28:25;;;;;;;3.50;3.30;;;;;;;7.85;100.00;98794.79;87052;275;137530;-72
2024/04/18 04:30:26;;;;;;;5.80;4.00;;;;;;;7.85;100.00;98792.09;86942;274;25246;-72
2024/04/18 04:32:27;;;;;;;4.90;4.20;;;;;;;7.87;100.00;98792.46;87224;274;137264;-73
2024/04/18 04:34:30;;;;;;;4.80;3.70;;;;;;;7.86;100.00;98785.08;86956;273;22581;-72
2024/04/18 04:36:30;;;;;;;4.90;4.30;;;;;;;7.88;100.00;98782.95;87329;270;136595;-72
2024/04/18 04:38:31;;;;;;;4.00;3.40;;;;;;;7.90;100.00;98783.52;87707;274;22583;-71
2024/04/18 04:40:32;;;;;;;4.30;4.00;;;;;;;7.92;100.00;98777.19;88721;279;136268;-71
2024/04/18 04:42:33;;;;;;;5.20;4.00;;;;;;;7.95;100.00;98776.45;89144;271;22579;-72
2024/04/18 04:44:34;;;;;;;3.60;3.30;;;;;;;7.97;100.00;98777.29;89356;266;136300;-68
2024/04/18 04:46:34;;;;;;;3.70;3.30;;;;;;;7.97;100.00;98779.13;89332;274;22565;-72
2024/04/18 04:48:50;;;;;;;4.20;3.70;;;;;;;7.98;100.00;98781.65;88607;266;136846;-68
2024/04/18 04:50:57;;;;;;;4.00;3.70;;;;;;;7.99;100.00;98782.95;88227;270;25197;-70
2024/04/18 04:53:06;;;;;;;4.30;3.20;;;;;;;7.96;100.00;98783.09;87353;271;135844;-72
2024/04/18 04:55:27;;;;;;;4.00;3.70;;;;;;;7.92;100.00;98780.61;86926;276;25124;-71
2024/04/18 04:57:28;;;;;;;4.70;3.60;;;;;;;7.90;100.00;98778.58;86845;281;137220;-73
2024/04/18 04:59:49;;;;;;;3.30;3.10;;;;;;;7.90;100.00;98774.45;87399;274;22566;-73
2024/04/18 05:01:50;;;;;;;5.50;4.50;;;;;;;7.92;100.00;98774.25;87344;274;137284;-71
2024/04/18 05:04:12;;;;;;;4.10;3.50;;;;;;;7.93;100.00;98771.06;87016;273;136501;-72
2024/04/18 05:06:13;;;;;;;4.50;3.80;;;;;;;7.95;100.00;98772.14;87093;274;22561;-72
2024/04/18 05:08:14;;;;;;;3.70;3.40;;;;;;;7.99;100.00;98769.20;86829;271;136036;-72
2024/04/18 05:10:14;;;;;;;4.10;3.80;;;;;;;8.00;100.00;98771.30;87521;282;22574;-73
2024/04/18 05:12:15;;;;;;;4.30;3.70;;;;;;;8.02;100.00;98771.35;87557;270;137469;-75
2024/04/18 05:14:16;;;;;;;3.60;3.40;;;;;;;8.04;100.00;98772.98;87559;274;22724;-73
2024/04/18 05:16:26;;;;;;;4.90;4.40;;;;;;;8.07;100.00;98779.52;87447;273;137011;-73
2024/04/18 05:18:45;;;;;;;4.60;3.80;;;;;;;8.05;100.00;98777.26;87445;278;22850;-75
2024/04/18 05:20:46;;;;;;;5.00;4.50;;;;;;;8.01;100.00;98776.43;87281;271;136865;-72
2024/04/18 05:22:47;;;;;;;8.90;5.20;;;;;;;8.01;100.00;98775.33;87244;282;22613;-73
2024/04/18 05:24:48;;;;;;;4.80;4.40;;;;;;;8.01;100.00;98779.19;87272;269;135928;-74
2024/04/18 05:26:48;;;;;;;7.40;4.00;;;;;;;7.98;100.00;98776.07;87082;281;22568;-74
2024/04/18 05:31:08;;;;;;;5.10;3.40;;;;;;;7.89;100.00;98778.98;87346;279;22567;-73
2024/04/18 05:33:09;;;;;;;3.70;3.00;;;;;;;7.87;100.00;98781.19;87190;274;137314;-72
2024/04/18 05:35:10;;;;;;;3.30;3.10;;;;;;;7.89;100.00;98784.34;87304;274;22550;-75
2024/04/18 05:37:10;;;;;;;7.40;4.10;;;;;;;7.92;100.00;98783.75;87239;274;136306;-72
2024/04/18 05:39:11;;;;;;;3.60;3.30;;;;;;;7.92;100.00;98781.67;87372;269;25232;-74
2024/04/18 05:41:12;;;;;;;3.20;3.00;;;;;;;7.94;100.00;98778.85;87225;282;137090;-72
2024/04/18 05:43:24;;;;;;;4.40;3.00;;;;;;;7.96;100.00;98775.67;86929;273;22571;-72
2024/04/18 05:45:25;;;;;;;3.30;2.60;;;;;;;7.96;100.00;98777.54;86778;274;138417;-74
2024/04/18 05:47:35;;;;;;;3.60;3.30;;;;;;;7.98;100.00;98774.05;87433;281;25209;-72
2024/04/18 05:49:36;;;;;;;4.10;2.30;;;;;;;8.00;100.00;98777.92;86857;275;136636;-70
2024/04/18 05:51:37;;;;;;;2.70;2.50;;;;;;;8.02;100.00;98773.56;87084;282;22568;-72
2024/04/18 05:54:01;;;;;;;2.80;2.50;;;;;;;8.06;100.00;98773.06;87803;281;137304;-73
2024/04/18 05:56:04;;;;;;;2.30;2.20;;;;;;;8.08;100.00;98773.16;87115;282;137495;-71
2024/04/18 05:58:05;;;;;;;2.40;2.30;;;;;;;8.08;100.00;98767.23;87454;280;22571;-69
2024/04/18 06:00:25;;;;;;;2.40;2.20;;;;;;;8.07;100.00;98765.61;87086;268;136402;-70
2024/04/18 06:02:25;;;;;;;1.80;1.70;;;;;;;8.06;100.00;98768.97;87103;272;23835;-68
2024/04/18 06:04:26;;;;;;;2.70;2.40;;;;;;;8.04;100.00;98774.37;86982;281;136057;-70
2024/04/18 06:06:46;;;;;;;5.80;3.20;;;;;;;8.01;100.00;98774.05;87015;274;23015;-69
2024/04/18 06:08:54;;;;;;;2.10;2.00;;;;;;;8.01;100.00;98775.97;87080;270;136610;-67
2024/04/18 06:10:54;;;;;;;2.30;2.10;;;;;;;8.02;100.00;98779.02;87303;267;24055;-68
2024/04/18 06:12:55;;;;;;;2.00;1.90;;;;;;;8.02;100.00;98783.35;86928;282;136382;-67
2024/04/18 06:14:57;;;;;;;3.30;2.30;;;;;;;8.01;100.00;98788.63;87010;274;22810;-68
2024/04/18 06:16:58;;;;;;;3.10;1.80;;;;;;;7.98;100.00;98798.95;86923;274;136432;-69
2024/04/18 06:19:19;;;;;;;5.00;1.70;;;;;;;7.92;100.00;98798.40;87056;281;22572;-68
2024/04/18 06:21:20;;;;;;;1.60;1.50;;;;;;;7.88;100.00;98801.81;86928;273;137427;-68
2024/04/18 06:23:21;;;;;;;2.80;2.40;;;;;;;7.86;100.00;98799.41;87088;280;22574;-68
2024/04/18 06:25:41;;;;;;;3.00;1.70;;;;;;;7.85;100.00;98800.67;86955;282;136716;-67
2024/04/18 06:27:42;;;;;;;7.30;1.80;;;;;;;7.84;100.00;98797.45;86952;281;22571;-66
2024/04/18 06:29:43;;;;;;;3.20;1.80;;;;;;;7.83;100.00;98796.89;86949;273;138166;-66
2024/04/18 06:31:44;;;;;;;3.20;1.90;;;;;;;7.78;100.00;98797.67;87051;274;23786;-65
2024/04/18 06:33:45;;;;;;;1.80;1.70;;;;;;;7.78;100.00;98798.23;86707;284;135632;-68
2024/04/18 06:35:46;;;;;;;2.70;1.80;;;;;;;7.79;100.00;98798.97;87304;273;22642;-72
2024/04/18 06:37:47;;;;;;;2.60;2.40;;;;;;;7.81;100.00;98798.71;86948;274;136804;-68
2024/04/18 06:39:48;;;;;;;2.70;2.50;;;;;;;7.81;100.00;98797.58;87034;273;22574;-73
2024/04/18 06:41:51;;;;;;;2.30;2.20;;;;;;;7.83;100.00;98799.29;86871;282;136487;-68
2024/04/18 06:43:53;;;;;;;3.40;2.10;;;;;;;7.87;100.00;98794.38;87110;269;22589;-69
2024/04/18 06:45:55;;;;;;;2.60;2.40;;;;;;;7.89;100.00;98796.95;86773;282;138269;-69
2024/04/18 06:47:55;;;;;;;2.50;2.30;;;;;;;7.92;100.00;98796.52;86844;274;22578;-68
2024/04/18 06:49:56;;;;;;;2.80;2.60;;;;;;;7.93;100.00;98797.09;86854;277;136318;-70
2024/04/18 06:51:57;;;;;;;4.80;2.50;;;;;;;7.93;100.00;98794.20;87006;274;24199;-70
2024/04/18 06:53:58;;;;;;;3.50;2.50;;;;;;;7.91;100.00;98791.10;86738;282;138056;-70
2024/04/18 06:56:01;;;;;;;2.00;1.90;;;;;;;7.91;100.00;98789.06;87084;269;22542;-69
2024/04/18 06:58:02;;;;;;;4.70;3.00;;;;;;;7.92;100.00;98781.36;87253;268;138173;-70
2024/04/18 07:00:04;;;;;;;2.40;2.20;;;;;;;7.94;100.00;98781.83;86955;272;22684;-69
2024/04/18 07:02:05;;;;;;;3.60;2.10;;;;;;;7.92;100.00;98776.52;87144;274;24113;-68
2024/04/18 07:04:26;;;;;;;4.40;2.60;;;;;;;7.89;100.00;98775.11;86910;272;137854;-69
2024/04/18 07:06:42;;;;;;;4.90;2.30;;;;;;;7.89;100.00;98777.31;87006;276;25093;-67
2024/04/18 07:08:43;;;;;;;2.70;1.80;;;;;;;7.90;100.00;98782.66;86925;280;136349;-68
2024/04/18 07:11:03;;;;;;;2.40;2.20;;;;;;;7.91;100.00;98781.02;87082;281;22562;-68
2024/04/18 07:13:04;;;;;;;3.10;2.20;;;;;;;7.94;100.00;98782.93;86762;273;136660;-68
2024/04/18 07:15:25;;;;;;;2.00;1.50;;;;;;;7.98;100.00;98782.95;86903;269;22566;-69
2024/04/18 07:17:47;;;;;;;1.80;1.60;;;;;;;7.99;100.00;98783.45;86844;280;137022;-69
2024/04/18 07:19:47;;;;;;;2.10;1.20;;;;;;;7.99;100.00;98787.77;87030;278;22497;-71
2024/04/18 07:22:07;;;;;;;3.20;1.50;;;;;;;7.97;100.00;98792.46;86875;271;22572;-70
2024/04/18 07:24:26;;;;;;;1.40;1.10;;;;;;;7.95;100.00;98789.98;86919;278;136505;-71
2024/04/18 07:26:27;;;;;;;4.20;1.80;;;;;;;7.93;100.00;98787.98;87107;271;22542;-70
2024/04/18 07:28:28;;;;;;;4.40;0.90;;;;;;;7.94;100.00;98788.64;87065;270;136366;-71
2024/04/18 07:30:29;;;;;;;3.20;1.20;;;;;;;7.93;100.00;98791.70;87033;269;24158;-69
2024/04/18 07:32:29;;;;;;;2.10;1.50;;;;;;;7.92;100.00;98792.56;87539;269;136843;-86
2024/04/18 07:34:30;;;;;;;3.50;1.30;;;;;;;7.91;100.00;98794.16;87954;271;22576;-82
2024/04/18 07:36:31;;;;;;;1.10;0.80;;;;;;;7.90;100.00;98797.00;87179;270;138020;-68
2024/04/18 07:38:40;;;;;;;3.20;2.40;;;;;;;7.87;100.00;98799.98;87146;276;22501;-72
2024/04/18 07:40:40;;;;;;;1.90;1.50;;;;;;;7.83;100.00;98798.80;87106;269;136358;-70
2024/04/18 07:42:42;;;;;;;2.10;1.90;;;;;;;7.78;100.00;98794.61;87490;276;22560;-71
2024/04/18 07:44:43;;;;;;;2.80;2.30;;;;;;;7.76;100.00;98794.09;87376;276;136616;-71
2024/04/18 07:46:44;;;;;;;1.60;1.50;;;;;;;7.73;100.00;98792.21;87065;268;22562;-72
2024/04/18 07:48:46;;;;;;;2.20;2.00;;;;;;;7.69;100.00;98791.60;87062;272;136448;-70
2024/04/18 07:50:48;;;;;;;1.60;1.50;;;;;;;7.64;100.00;98783.66;87482;268;22581;-68
2024/04/18 07:52:49;;;;;;;1.30;1.30;;;;;;;7.59;100.00;98784.16;86870;274;137119;-71
2024/04/18 07:54:49;;;;;;;3.80;1.80;;;;;;;7.54;100.00;98789.34;86955;271;22562;-70
2024/04/18 07:56:50;;;;;;;2.60;1.70;;;;;;;7.50;100.00;98788.05;86970;271;137689;-70
2024/04/18 07:58:50;;;;;;;2.30;2.20;;;;;;;7.46;100.00;98785.08;87108;271;22566;-75
2024/04/18 08:00:52;;;;;;;2.10;2.00;;;;;;;7.43;100.00;98777.50;87395;265;136834;-70
2024/04/18 08:02:53;;;;;;;2.90;2.00;;;;;;;7.42;100.00;98773.00;87182;270;25079;-70
2024/04/18 08:04:54;;;;;;;2.30;2.10;;;;;;;7.43;100.00;98773.95;87173;279;137978;-69
2024/04/18 08:06:55;;;;;;;3.00;2.20;;;;;;;7.45;100.00;98770.57;87243;278;25230;-69
2024/04/18 08:08:55;;;;;;;1.80;1.70;;;;;;;7.43;100.00;98770.24;86908;279;136968;-71
2024/04/18 08:10:56;;;;;;;2.80;1.50;;;;;;;7.40;100.00;98765.06;87008;270;22575;-69
2024/04/18 08:12:57;;;;;;;4.40;3.00;;;;;;;7.40;100.00;98762.27;86930;271;136717;-72
2024/04/18 08:14:59;;;;;;;5.50;2.60;;;;;;;7.41;100.00;98765.31;86936;269;22553;-70
2024/04/18 08:17:00;;;;;;;5.50;2.70;;;;;;;7.44;100.00;98770.23;87003;274;136929;-71
2024/04/18 08:19:01;;;;;;;4.50;1.90;;;;;;;7.43;100.00;98771.95;86945;281;22679;-72
2024/04/18 08:21:02;;;;;;;1.90;1.80;;;;;;;7.41;100.00;98774.73;87210;271;136866;-72
2024/04/18 08:23:04;;;;;;;2.60;2.30;;;;;;;7.39;100.00;98776.45;87455;272;25172;-69
2024/04/18 08:25:07;;;;;;;2.00;1.90;;;;;;;7.40;100.00;98772.56;87042;268;136849;-68
2024/04/18 08:27:08;;;;;;;2.40;1.80;;;;;;;7.42;100.00;98772.27;87137;280;24766;-71
2024/04/18 08:29:08;;;;;;;1.70;1.60;;;;;;;7.40;100.00;98766.73;86898;273;137065;-68
2024/04/18 08:31:09;;;;;;;2.80;2.20;;;;;;;7.38;100.00;98766.63;87054;271;25093;-73
2024/04/18 08:33:10;;;;;;;2.10;1.90;;;;;;;7.35;100.00;98762.83;87246;272;136501;-70
2024/04/18 08:35:11;;;;;;;4.40;1.80;;;;;;;7.33;100.00;98762.17;87141;270;22568;-69
2024/04/18 08:37:12;;;;;;;2.40;2.10;;;;;;;7.30;100.00;98754.27;86966;282;136279;-70
2024/04/18 08:39:15;;;;;;;4.10;3.00;;;;;;;7.28;100.00;98754.35;87638;272;22571;-72
2024/04/18 08:41:17;;;;;;;4.60;1.80;;;;;;;7.27;100.00;98751.02;86951;276;136426;-71
2024/04/18 08:43:19;;;;;;;2.20;2.00;;;;;;;7.26;100.00;98748.65;87289;278;24066;-73
2024/04/18 08:45:26;;;;;;;2.10;1.90;;;;;;;7.27;100.00;98749.25;86953;272;136222;-69
2024/04/18 08:47:31;;;;;;;2.80;2.60;;;;;;;7.29;100.00;98747.58;87252;272;25283;-70
2024/04/18 08:49:36;;;;;;;3.40;2.50;;;;;;;7.28;100.00;98744.73;87197;277;136568;-71
2024/04/18 08:51:38;;;;;;;2.90;2.00;;;;;;;7.28;100.00;98739.34;87250;275;22718;-72
2024/04/18 08:53:39;;;;;;;1.80;1.70;;;;;;;7.26;100.00;98735.88;87019;279;136881;-68
2024/04/18 08:55:46;;;;;;;3.40;1.60;;;;;;;7.23;100.00;98731.69;87031;270;22532;-70
2024/04/18 08:57:50;;;;;;;2.80;2.10;;;;;;;7.21;100.00;98729.46;86974;279;136739;-71
2024/04/18 08:59:56;;;;;;;4.40;1.90;;;;;;;7.22;100.00;98724.23;87263;275;22630;-68
2024/04/18 09:01:59;;;;;;;1.90;1.80;;;;;;;7.23;100.00;98725.23;87146;270;137685;-68
2024/04/18 09:03:59;;;;;;;1.50;1.40;;;;;;;7.26;100.00;98718.31;87222;271;22552;-69
2024/04/18 09:06:02;;;;;;;1.50;1.30;;;;;;;7.28;100.00;98719.66;87080;274;136597;-71
2024/04/18 09:08:04;;;;;;;2.80;2.20;;;;;;;7.27;100.00;98718.18;87503;273;136663;-69
2024/04/18 09:10:09;;;;;;;2.10;1.20;;;;;;;7.26;100.00;98715.83;87065;272;22629;-71
2024/04/18 09:12:10;;;;;;;2.00;1.40;;;;;;;7.23;100.00;98712.45;87096;272;136980;-70
2024/04/18 09:14:11;;;;;;;2.30;1.70;;;;;;;7.24;100.00;98702.17;86968;268;22556;-74
2024/04/18 09:16:13;;;;;;;1.60;1.50;;;;;;;7.22;100.00;98698.09;87019;282;137168;-70
2024/04/18 09:18:14;;;;;;;1.00;1.00;;;;;;;7.21;100.00;98701.80;87274;273;24064;-68
2024/04/18 09:20:16;;;;;;;1.60;1.20;;;;;;;7.21;100.00;98692.07;86837;272;138536;-70
2024/04/18 09:22:17;;;;;;;2.00;1.20;;;;;;;7.24;100.00;98692.31;86863;272;22645;-70
2024/04/18 09:24:18;;;;;;;2.00;1.40;;;;;;;7.24;100.00;98692.88;86906;267;136865;-68
2024/04/18 09:26:19;;;;;;;1.20;1.10;;;;;;;7.23;100.00;98692.23;87031;278;22596;-70
2024/04/18 09:28:20;;;;;;;2.40;1.60;;;;;;;7.21;100.00;98687.14;86970;279;136620;-68
2024/04/18 09:30:22;;;;;;;2.20;1.20;;;;;;;7.18;100.00;98689.46;87111;266;22562;-70
2024/04/18 09:32:23;;;;;;;1.10;0.90;;;;;;;7.17;100.00;98689.42;87002;274;136699;-68
2024/04/18 09:34:25;;;;;;;0.70;0.60;;;;;;;7.16;100.00;98687.71;87145;278;25218;-66
2024/04/18 09:36:26;;;;;;;1.40;1.00;;;;;;;7.18;100.00;98688.27;86828;272;136592;-71
2024/04/18 09:38:32;;;;;;;2.50;0.90;;;;;;;7.18;100.00;98689.79;87130;274;22751;-73
2024/04/18 09:40:36;;;;;;;1.80;1.40;;;;;;;7.20;100.00;98686.58;88440;266;137024;-70
2024/04/18 09:43:15;;;;;;;2.70;1.00;;;;;;;7.18;100.00;98683.59;86987;271;23743;-69
2024/04/18 09:45:19;;;;;;;1.60;1.10;;;;;;;7.13;100.00;98685.64;87319;271;136594;-71
2024/04/18 09:47:22;;;;;;;1.10;1.00;;;;;;;7.13;100.00;98683.96;87523;272;22633;-70
2024/04/18 09:49:23;;;;;;;1.20;1.10;;;;;;;7.12;100.00;98673.13;87498;270;136736;-71
2024/04/18 09:51:25;;;;;;;1.70;1.20;;;;;;;7.12;100.00;98668.35;87655;278;24132;-70
2024/04/18 09:53:28;;;;;;;1.90;1.70;;;;;;;7.14;100.00;98663.02;87371;269;137981;-69
2024/04/18 09:55:32;;;;;;;1.60;0.90;;;;;;;7.13;100.00;98659.91;87232;266;22536;-70
2024/04/18 09:57:34;;;;;;;1.20;1.20;;;;;;;7.14;100.00;98662.08;87461;271;137368;-67
2024/04/18 09:59:38;;;;;;;2.70;1.10;;;;;;;7.14;100.00;98659.55;87433;277;22554;-69